Time;durP1;ratioP1;P1;durP2;ratioP2;P2;SDS_P1;SDS_P2;PMS_P1;PMS_P2;Temp;Humidity;BMP_temperature;BMP_pressure;BME280_temperature;BME280_humidity;BME280_pressure;Samples;Min_cycle;Max_cycle;Signal;HPM_P1;HPM_P2
2022/01/26 00:06:45;;;;;;;6.35;1.75;;;25.90;63.90;;;;;;5087502;28;20042;-70
2022/01/26 00:09:12;;;;;;;6.10;1.63;;;25.80;63.20;;;;;;5076531;28;20032;-70
2022/01/26 00:11:40;;;;;;;8.10;1.45;;;25.90;63.80;;;;;;5065434;28;20032;-71
2022/01/26 00:14:13;;;;;;;5.28;1.20;;;25.90;62.40;;;;;;5059180;28;20170;-70
2022/01/26 00:16:44;;;;;;;7.65;4.13;;;25.90;63.90;;;;;;5069764;28;20498;-70
2022/01/26 00:19:21;;;;;;;4.28;1.50;;;25.90;62.70;;;;;;5059010;28;20059;-70
2022/01/26 00:21:52;;;;;;;2.72;1.40;;;25.80;61.40;;;;;;5090374;28;20054;-70
2022/01/26 00:27:33;;;;;;;6.38;1.35;;;25.90;64.30;;;;;;5080555;28;20032;-71
2022/01/26 00:31:12;;;;;;;5.13;1.40;;;25.90;63.50;;;;;;5056386;28;20460;-70
2022/01/26 00:38:43;;;;;;;5.85;1.20;;;25.80;63.90;;;;;;5053387;28;20071;-71
2022/01/26 00:41:15;;;;;;;;;;;25.80;62.90;;;;;;5061741;28;20056;-70
2022/01/26 00:43:49;;;;;;;5.30;2.35;;;25.80;62.00;;;;;;5056557;28;20343;-70
2022/01/26 00:46:17;;;;;;;3.92;1.20;;;25.80;63.10;;;;;;5050877;28;20540;-70
2022/01/26 00:48:44;;;;;;;2.35;1.20;;;25.80;60.30;;;;;;5035303;28;20044;-71
2022/01/26 00:51:15;;;;;;;4.55;1.20;;;25.70;62.00;;;;;;5066838;28;20546;-70
2022/01/26 00:53:49;;;;;;;2.67;1.02;;;25.80;61.60;;;;;;5042719;28;20091;-70
2022/01/26 00:56:16;;;;;;;3.50;1.05;;;25.80;61.10;;;;;;5070045;28;20119;-70
2022/01/26 00:58:43;;;;;;;2.50;0.93;;;25.70;61.70;;;;;;5064606;28;20051;-71
2022/01/26 01:01:11;;;;;;;4.63;1.27;;;25.70;61.90;;;;;;5069201;28;20048;-71
2022/01/26 01:03:42;;;;;;;5.13;1.20;;;25.70;61.80;;;;;;5060123;28;20502;-71
2022/01/26 01:06:20;;;;;;;4.20;1.23;;;25.60;61.70;;;;;;5061620;28;20037;-70
2022/01/26 01:08:47;;;;;;;2.50;1.23;;;25.60;61.20;;;;;;5065287;28;20145;-71
2022/01/26 01:11:15;;;;;;;4.40;1.85;;;25.60;62.60;;;;;;5055039;28;20466;-71
2022/01/26 01:13:43;;;;;;;6.57;3.97;;;25.70;64.00;;;;;;5069733;28;20135;-70
2022/01/26 01:16:13;;;;;;;3.55;1.23;;;25.70;64.40;;;;;;5071768;28;20386;-71
2022/01/26 01:18:49;;;;;;;7.40;1.55;;;25.70;63.00;;;;;;5056314;28;20033;-71
2022/01/26 01:29:25;;;;;;;3.03;1.17;;;25.70;63.30;;;;;;5063775;28;20059;-70
2022/01/26 01:31:58;;;;;;;3.08;1.00;;;25.70;62.70;;;;;;5069276;28;20086;-71
2022/01/26 01:34:29;;;;;;;6.75;1.70;;;25.70;63.40;;;;;;5069449;28;20029;-71
2022/01/26 01:37:02;;;;;;;4.88;1.63;;;25.70;62.40;;;;;;5056238;28;20036;-71
2022/01/26 01:39:30;;;;;;;4.57;0.98;;;25.70;64.10;;;;;;5062075;28;20032;-70
2022/01/26 01:41:57;;;;;;;6.35;1.13;;;25.60;62.60;;;;;;5073209;28;20360;-70
2022/01/26 01:44:24;;;;;;;3.35;1.20;;;25.70;61.50;;;;;;5057602;28;20029;-71
2022/01/26 01:46:53;;;;;;;3.95;1.30;;;25.70;61.00;;;;;;5048381;28;20033;-69
2022/01/26 01:49:20;;;;;;;2.75;1.05;;;25.60;61.30;;;;;;5066868;28;20029;-71
2022/01/26 01:51:58;;;;;;;2.40;0.95;;;25.60;61.80;;;;;;5038124;28;20040;-70
2022/01/26 01:54:25;;;;;;;3.45;1.30;;;25.60;62.20;;;;;;5072890;28;20068;-71
2022/01/26 02:58:33;;;;;;;5.03;1.10;;;25.50;62.00;;;;;;5036967;28;20067;-70
2022/01/26 03:03:38;;;;;;;6.63;1.63;;;25.50;61.30;;;;;;5027353;28;20065;-70
2022/01/26 03:06:11;;;;;;;9.15;2.22;;;25.50;61.70;;;;;;5056124;28;20651;-70
2022/01/26 03:08:43;;;;;;;7.50;2.00;;;25.50;61.50;;;;;;5029522;28;20030;-69
2022/01/26 03:11:11;;;;;;;8.13;1.77;;;25.50;60.80;;;;;;5046302;28;20029;-69
2022/01/26 03:13:42;;;;;;;3.42;1.20;;;25.50;61.40;;;;;;5060615;28;20131;-70
2022/01/26 03:16:56;;;;;;;5.10;1.40;;;25.50;60.90;;;;;;5039514;28;20438;-70
2022/01/26 03:22:05;;;;;;;5.20;1.40;;;25.50;61.70;;;;;;5063051;28;20055;-70
2022/01/26 03:30:02;;;;;;;3.03;1.20;;;25.40;61.30;;;;;;5058183;28;20157;-70
2022/01/26 03:34:59;;;;;;;5.45;1.20;;;25.50;60.40;;;;;;5060570;28;20467;-70
2022/01/26 03:37:33;;;;;;;3.27;1.00;;;25.40;61.00;;;;;;5058284;28;20059;-71
2022/01/26 03:40:03;;;;;;;5.65;1.00;;;25.40;59.10;;;;;;5031220;28;20021;-70
2022/01/26 03:42:30;;;;;;;3.22;0.95;;;25.40;59.30;;;;;;5054235;28;20553;-70
2022/01/26 03:44:57;;;;;;;6.53;1.25;;;25.40;60.90;;;;;;5069904;28;20033;-70
2022/01/26 03:47:24;;;;;;;5.80;1.10;;;25.40;59.70;;;;;;5063200;28;20082;-70
2022/01/26 03:49:51;;;;;;;2.70;1.10;;;25.40;59.70;;;;;;5062965;28;20040;-70
2022/01/26 03:52:19;;;;;;;7.57;1.80;;;25.40;59.90;;;;;;5055248;28;20037;-70
2022/01/26 03:54:46;;;;;;;5.70;1.20;;;25.40;59.50;;;;;;5066886;28;20374;-69
2022/01/26 03:57:13;;;;;;;4.25;1.20;;;25.40;59.50;;;;;;5022502;28;20036;-70
2022/01/26 03:59:40;;;;;;;6.63;1.20;;;25.40;60.10;;;;;;5071505;28;20040;-70
2022/01/26 04:02:07;;;;;;;4.15;1.10;;;25.40;61.20;;;;;;5055450;28;20079;-70
2022/01/26 04:04:42;;;;;;;3.42;1.45;;;25.40;60.50;;;;;;5053358;28;20021;-70
2022/01/26 04:07:10;;;;;;;4.45;1.25;;;25.40;60.40;;;;;;5085047;28;20090;-70
2022/01/26 04:09:37;;;;;;;3.75;1.25;;;25.40;58.70;;;;;;5077495;28;20171;-70
2022/01/26 04:12:04;;;;;;;4.47;1.33;;;25.40;59.00;;;;;;5071112;28;20037;-70
2022/01/26 04:14:33;;;;;;;6.55;1.48;;;25.30;60.20;;;;;;5086766;28;20127;-70
2022/01/26 04:17:01;;;;;;;3.90;1.10;;;25.40;59.70;;;;;;5067252;28;20434;-71
2022/01/26 04:19:31;;;;;;;4.57;1.23;;;25.30;58.90;;;;;;5042439;28;20032;-70
2022/01/26 04:24:42;;;;;;;5.82;1.25;;;25.40;61.90;;;;;;5074593;28;20306;-71
2022/01/26 04:27:22;;;;;;;4.47;1.33;;;25.40;60.50;;;;;;5060962;28;20032;-71
2022/01/26 06:37:36;;;;;;;4.00;1.10;;;25.00;58.50;;;;;;5050503;28;20076;-71
2022/01/26 06:40:04;;;;;;;4.22;1.20;;;24.90;59.60;;;;;;5044425;28;20033;-71
2022/01/26 06:42:39;;;;;;;3.13;0.82;;;24.80;59.60;;;;;;5064114;28;20240;-71
2022/01/26 06:45:16;;;;;;;3.90;1.55;;;24.90;58.20;;;;;;5068824;28;20037;-71
2022/01/26 06:50:13;;;;;;;7.63;1.80;;;24.90;58.30;;;;;;5056068;28;20120;-72
2022/01/26 06:52:43;;;;;;;4.22;1.38;;;24.90;59.30;;;;;;5062585;28;20037;-73
2022/01/26 06:55:10;;;;;;;;;;;24.90;58.70;;;;;;5052738;28;20042;-71
2022/01/26 06:57:37;;;;;;;4.18;1.48;;;24.90;58.80;;;;;;5049911;28;20369;-72
2022/01/26 07:00:05;;;;;;;3.35;1.05;;;24.80;59.20;;;;;;5055204;28;20040;-71
2022/01/26 07:02:32;;;;;;;5.13;1.45;;;24.80;58.30;;;;;;5022745;28;20040;-72
2022/01/26 07:05:00;;;;;;;5.15;1.73;;;24.80;59.40;;;;;;5061070;28;20029;-72
2022/01/26 07:07:27;;;;;;;4.15;1.15;;;24.70;58.70;;;;;;5050770;28;20037;-72
2022/01/26 07:09:54;;;;;;;4.47;1.33;;;24.80;59.60;;;;;;5066191;28;20491;-72
2022/01/26 07:12:21;;;;;;;4.88;1.50;;;24.80;60.00;;;;;;5071501;28;20528;-72
2022/01/26 07:23:03;;;;;;;5.97;1.45;;;24.70;60.40;;;;;;5046234;28;20116;-73
2022/01/26 07:25:30;;;;;;;3.65;1.25;;;24.70;59.90;;;;;;5037808;28;20469;-73
2022/01/26 07:27:58;;;;;;;6.22;1.48;;;24.70;60.20;;;;;;5029086;28;20052;-72
2022/01/26 07:30:25;;;;;;;3.35;1.40;;;24.60;60.60;;;;;;5078207;28;20048;-72
2022/01/26 07:32:53;;;;;;;6.65;1.40;;;24.60;60.30;;;;;;5052155;28;20044;-72
2022/01/26 07:35:20;;;;;;;3.20;1.20;;;24.60;60.40;;;;;;5057806;28;20083;-72
2022/01/26 07:37:48;;;;;;;3.70;1.25;;;24.60;60.70;;;;;;5090816;28;20036;-73
2022/01/26 07:40:15;;;;;;;3.63;1.50;;;24.50;60.40;;;;;;5071084;28;20165;-72
2022/01/26 07:42:43;;;;;;;4.80;1.20;;;24.60;60.40;;;;;;5090019;28;20060;-73
2022/01/26 07:45:10;;;;;;;5.72;1.20;;;24.50;61.10;;;;;;5089938;28;20385;-73
2022/01/26 07:47:38;;;;;;;6.97;1.70;;;24.60;61.20;;;;;;5073548;28;20028;-72
2022/01/26 07:50:08;;;;;;;5.28;1.40;;;24.50;61.00;;;;;;5072947;28;20066;-73
2022/01/26 07:52:39;;;;;;;5.13;1.30;;;24.50;61.10;;;;;;5091219;28;20044;-74
2022/01/26 07:55:11;;;;;;;8.60;1.75;;;24.40;61.90;;;;;;5100677;28;20032;-73
2022/01/26 07:57:38;;;;;;;4.22;1.38;;;24.40;62.30;;;;;;5040367;28;20036;-74
2022/01/26 08:00:06;;;;;;;3.88;1.25;;;24.50;62.30;;;;;;5085409;28;20498;-74
2022/01/26 08:02:33;;;;;;;7.63;2.03;;;24.40;62.30;;;;;;5070689;28;20086;-75
2022/01/26 08:05:00;;;;;;;4.47;1.70;;;24.40;62.60;;;;;;5088428;28;20028;-75
2022/01/26 08:07:28;;;;;;;4.72;1.20;;;24.40;62.90;;;;;;5091229;28;20395;-73
2022/01/26 08:09:55;;;;;;;4.00;1.45;;;24.40;63.10;;;;;;5090175;28;20028;-72
2022/01/26 08:12:22;;;;;;;5.70;2.15;;;24.40;63.50;;;;;;5090918;28;20063;-73
2022/01/26 08:14:49;;;;;;;5.45;1.80;;;24.30;63.50;;;;;;5091352;28;20116;-73
2022/01/26 08:17:17;;;;;;;4.82;2.00;;;24.30;64.00;;;;;;5090781;28;20066;-76
2022/01/26 08:19:44;;;;;;;5.85;1.70;;;24.30;63.80;;;;;;5090827;28;20448;-78
2022/01/26 08:22:18;;;;;;;3.47;1.35;;;24.30;63.60;;;;;;5091577;28;20032;-79
2022/01/26 08:24:45;;;;;;;5.75;1.70;;;24.30;63.40;;;;;;5091083;28;20025;-78
2022/01/26 08:27:14;;;;;;;5.60;1.60;;;24.30;63.60;;;;;;5088555;28;20371;-81
2022/01/26 08:29:49;;;;;;;4.80;1.30;;;24.30;63.80;;;;;;5083955;28;20020;-75
2022/01/26 10:57:53;;;;;;;11.90;4.43;;;23.60;68.40;;;;;;5066252;28;20063;-68
2022/01/26 11:00:20;;;;;;;8.85;2.90;;;23.60;68.70;;;;;;5051507;28;20043;-69
2022/01/26 11:02:48;;;;;;;5.45;2.10;;;23.60;68.70;;;;;;5045738;28;20025;-69
2022/01/26 11:05:16;;;;;;;8.07;2.80;;;23.60;68.30;;;;;;5043827;28;20116;-69
2022/01/26 11:07:43;;;;;;;10.60;3.03;;;23.60;68.40;;;;;;5067692;28;20124;-69
2022/01/26 11:10:12;;;;;;;7.20;2.22;;;23.60;68.60;;;;;;5059178;28;20098;-69
2022/01/26 11:12:40;;;;;;;12.68;3.17;;;23.60;68.60;;;;;;5067000;28;20101;-69
2022/01/26 11:15:15;;;;;;;10.45;2.72;;;23.60;68.70;;;;;;5080520;28;20108;-69
2022/01/26 11:17:44;;;;;;;5.88;1.88;;;23.50;68.20;;;;;;5068643;28;20514;-69
2022/01/26 11:20:33;;;;;;;4.18;1.50;;;23.50;67.60;;;;;;5055139;28;20033;-69
2022/01/26 11:23:02;;;;;;;8.57;2.08;;;23.50;67.40;;;;;;5090295;28;20036;-69
2022/01/26 11:25:50;;;;;;;3.95;1.58;;;23.50;67.40;;;;;;5091899;28;20082;-69
2022/01/26 11:28:20;;;;;;;6.22;1.90;;;23.50;67.30;;;;;;5068012;28;20486;-69
2022/01/26 11:30:48;;;;;;;7.00;2.20;;;23.50;67.50;;;;;;5037783;28;20048;-69
2022/01/26 11:33:21;;;;;;;4.82;1.60;;;23.50;67.20;;;;;;5067298;28;20148;-69
2022/01/26 11:35:49;;;;;;;5.93;1.50;;;23.50;68.00;;;;;;5075373;28;20054;-69
2022/01/26 11:47:01;;;;;;;5.55;1.85;;;23.50;66.70;;;;;;5075841;28;20048;-69
2022/01/26 11:49:34;;;;;;;4.15;1.48;;;23.40;65.00;;;;;;5074620;28;20036;-69
2022/01/26 11:52:01;;;;;;;5.72;2.03;;;23.50;65.00;;;;;;5051968;28;20044;-69
2022/01/26 11:54:41;;;;;;;8.02;2.28;;;23.40;65.00;;;;;;5054954;28;20035;-68
2022/01/26 11:57:14;;;;;;;7.22;1.88;;;23.50;64.90;;;;;;5052303;28;20086;-68
2022/01/26 11:59:52;;;;;;;5.82;1.25;;;23.50;65.00;;;;;;5077112;28;20375;-69
2022/01/26 12:02:32;;;;;;;4.97;1.48;;;23.50;65.20;;;;;;5070185;28;20036;-69
2022/01/26 12:05:01;;;;;;;5.28;1.25;;;23.50;65.60;;;;;;5079564;28;20058;-69
2022/01/26 12:07:29;;;;;;;3.25;1.25;;;23.40;65.10;;;;;;5069014;28;20043;-70
2022/01/26 12:09:56;;;;;;;4.72;1.67;;;23.40;66.00;;;;;;5078974;28;22894;-69
2022/01/26 12:12:24;;;;;;;3.72;1.40;;;23.40;65.90;;;;;;5058402;28;20067;-69
2022/01/26 12:15:11;;;;;;;5.22;1.15;;;23.30;66.10;;;;;;5089159;28;20344;-69
2022/01/26 12:18:17;;;;;;;6.38;1.48;;;23.40;66.10;;;;;;5057301;28;20035;-69
2022/01/26 12:45:17;;;;;;;5.32;1.23;;;23.30;67.30;;;;;;5070687;28;20047;-70
2022/01/26 12:47:45;;;;;;;7.93;1.52;;;23.30;67.30;;;;;;5052869;28;20037;-70
2022/01/26 12:50:12;;;;;;;5.05;1.30;;;23.30;67.70;;;;;;5058557;28;20551;-70
2022/01/26 12:52:39;;;;;;;2.17;1.10;;;23.30;67.20;;;;;;5069773;28;20036;-69
2022/01/26 12:55:07;;;;;;;4.32;1.42;;;23.30;68.00;;;;;;5066456;28;20040;-69
2022/01/26 12:57:43;;;;;;;5.13;1.13;;;23.30;68.30;;;;;;5069962;28;20127;-69
2022/01/26 13:00:11;;;;;;;11.38;2.38;;;23.30;67.80;;;;;;5065816;28;20078;-69
2022/01/26 13:02:39;;;;;;;3.90;1.23;;;23.30;68.20;;;;;;5066014;28;20033;-69
2022/01/26 13:05:07;;;;;;;3.75;1.20;;;23.30;67.70;;;;;;5067360;28;20029;-69
2022/01/26 13:07:34;;;;;;;5.32;1.23;;;23.30;67.90;;;;;;5083311;28;20047;-70
2022/01/26 13:10:01;;;;;;;4.85;1.27;;;23.30;67.50;;;;;;5093298;28;20547;-70
2022/01/26 13:12:34;;;;;;;5.07;1.23;;;23.30;66.90;;;;;;5091341;28;20201;-70
2022/01/26 13:15:11;;;;;;;5.65;1.40;;;23.30;67.10;;;;;;5040122;28;20029;-69
2022/01/26 13:17:47;;;;;;;2.80;1.02;;;23.30;67.20;;;;;;5069081;28;20028;-69
2022/01/26 13:46:40;;;;;;;5.00;1.40;;;23.30;67.50;;;;;;5051878;28;20149;-69
2022/01/26 13:51:59;;;;;;;2.80;1.15;;;23.30;68.10;;;;;;5036745;28;20076;-69
2022/01/26 13:54:47;;;;;;;4.47;1.40;;;23.30;67.70;;;;;;5046990;28;20069;-69
2022/01/26 13:59:51;;;;;;;5.68;1.50;;;23.30;67.20;;;;;;5042176;28;20040;-70
2022/01/26 14:02:18;;;;;;;3.45;1.20;;;23.30;66.40;;;;;;5051765;28;20167;-69
2022/01/26 14:04:46;;;;;;;6.97;1.40;;;23.30;64.90;;;;;;5051618;28;20518;-69
2022/01/26 14:07:13;;;;;;;3.83;1.30;;;23.30;65.20;;;;;;5053524;28;20683;-70
2022/01/26 14:09:41;;;;;;;3.38;1.27;;;23.30;64.70;;;;;;5053015;28;20416;-71
2022/01/26 14:12:12;;;;;;;5.35;1.75;;;23.30;65.10;;;;;;5052725;28;20072;-69
2022/01/26 14:14:43;;;;;;;5.38;1.17;;;23.30;65.40;;;;;;5052757;28;20044;-69
2022/01/26 14:17:14;;;;;;;3.90;1.10;;;23.30;64.30;;;;;;5052571;28;20064;-69
2022/01/26 14:27:55;;;;;;;4.32;1.17;;;23.20;63.30;;;;;;5053336;28;20040;-69
2022/01/26 15:35:00;;;;;;;4.05;1.20;;;22.60;65.10;;;;;;5083000;28;20039;-70
2022/01/26 15:40:29;;;;;;;6.78;1.45;;;22.60;65.00;;;;;;5075066;28;20409;-69
2022/01/26 15:57:16;;;;;;;3.88;1.15;;;22.50;66.10;;;;;;5071365;28;20068;-69
2022/01/26 15:59:04;;;;;;;4.20;1.48;;;22.40;67.50;;;;;;5054580;28;20051;-70
2022/01/26 18:26:39;;;;;;;2.72;1.27;;;22.20;74.20;;;;;;5092944;28;20142;-69
2022/01/26 20:47:16;;;;;;;9.90;2.65;;;22.30;78.30;;;;;;5073767;28;20048;-70
2022/01/26 20:49:43;;;;;;;9.70;3.30;;;22.30;77.80;;;;;;5085099;28;20041;-70
2022/01/26 20:52:10;;;;;;;10.57;3.10;;;22.40;77.40;;;;;;5069431;28;20402;-69
2022/01/26 20:54:38;;;;;;;10.25;3.50;;;22.50;77.20;;;;;;5069774;28;20044;-69
2022/01/26 20:57:05;;;;;;;7.20;3.70;;;22.50;77.20;;;;;;5069647;28;20032;-69
2022/01/26 20:59:33;;;;;;;9.65;2.88;;;22.60;76.70;;;;;;5085779;28;20078;-70
2022/01/26 21:02:00;;;;;;;6.72;2.17;;;22.70;76.30;;;;;;5059147;28;20040;-70
2022/01/26 21:04:27;;;;;;;12.48;2.72;;;22.70;74.90;;;;;;5070224;28;20557;-69
2022/01/26 21:06:54;;;;;;;7.07;2.45;;;22.80;75.00;;;;;;5053019;28;20040;-70
2022/01/26 21:09:21;;;;;;;7.40;2.92;;;22.80;75.00;;;;;;5050088;28;20025;-71
2022/01/26 21:11:49;;;;;;;7.60;2.58;;;22.80;75.30;;;;;;5059959;28;20441;-71
2022/01/26 21:14:16;;;;;;;11.18;2.50;;;22.90;75.10;;;;;;5075931;28;20036;-71
2022/01/26 21:16:43;;;;;;;7.70;2.25;;;22.90;74.70;;;;;;5071160;28;20028;-71
2022/01/26 21:19:10;;;;;;;7.88;2.40;;;22.90;74.90;;;;;;5085719;28;20064;-71
2022/01/26 21:21:37;;;;;;;12.60;2.30;;;23.00;74.50;;;;;;5070189;28;20052;-71
2022/01/26 21:24:05;;;;;;;4.88;2.03;;;23.00;74.60;;;;;;5070105;28;20029;-70
2022/01/26 21:26:34;;;;;;;36.45;3.30;;;23.00;73.90;;;;;;5070045;28;20139;-71
2022/01/26 21:29:01;;;;;;;13.15;2.70;;;23.00;74.30;;;;;;5074179;28;20082;-71
2022/01/26 21:31:28;;;;;;;14.30;3.75;;;23.00;73.90;;;;;;5074159;28;20390;-71
2022/01/26 21:33:55;;;;;;;6.97;2.97;;;23.00;74.80;;;;;;5073941;28;20115;-71
2022/01/26 21:36:22;;;;;;;18.52;5.65;;;23.20;74.80;;;;;;5073874;28;20090;-71
